sensor_id;sensor_type;location;lat;lon;timestamp;temperature;humidity
23445;DHT22;11895;48.738;9.320;2023-05-10T00:00:45;14.10;99.90
23445;DHT22;11895;48.738;9.320;2023-05-10T00:03:13;13.90;99.90
23445;DHT22;11895;48.738;9.320;2023-05-10T00:05:41;14.50;99.90
23445;DHT22;11895;48.738;9.320;2023-05-10T00:08:08;14.20;99.90
23445;DHT22;11895;48.738;9.320;2023-05-10T00:10:36;14.80;99.90
23445;DHT22;11895;48.738;9.320;2023-05-10T00:13:07;14.60;99.90
23445;DHT22;11895;48.738;9.320;2023-05-10T00:15:34;14.10;99.90
23445;DHT22;11895;48.738;9.320;2023-05-10T00:18:01;14.40;99.90
23445;DHT22;11895;48.738;9.320;2023-05-10T00:20:29;13.80;99.90
23445;DHT22;11895;48.738;9.320;2023-05-10T00:22:57;14.00;99.90
23445;DHT22;11895;48.738;9.320;2023-05-10T00:25:24;13.90;99.90
23445;DHT22;11895;48.738;9.320;2023-05-10T00:27:52;14.10;99.90
23445;DHT22;11895;48.738;9.320;2023-05-10T00:30:22;15.10;99.90
23445;DHT22;11895;48.738;9.320;2023-05-10T00:32:52;14.10;99.90
23445;DHT22;11895;48.738;9.320;2023-05-10T00:35:19;14.20;99.90
23445;DHT22;11895;48.738;9.320;2023-05-10T00:37:47;14.30;99.90
23445;DHT22;11895;48.738;9.320;2023-05-10T00:40:14;14.70;99.90
23445;DHT22;11895;48.738;9.320;2023-05-10T00:42:46;14.40;99.90
23445;DHT22;11895;48.738;9.320;2023-05-10T00:45:13;14.40;99.90
23445;DHT22;11895;48.738;9.320;2023-05-10T00:47:41;14.40;99.90
23445;DHT22;11895;48.738;9.320;2023-05-10T00:50:09;15.60;99.90
23445;DHT22;11895;48.738;9.320;2023-05-10T00:52:36;14.50;99.90
23445;DHT22;11895;48.738;9.320;2023-05-10T00:55:04;14.30;99.90
23445;DHT22;11895;48.738;9.320;2023-05-10T00:57:33;14.30;99.90
23445;DHT22;11895;48.738;9.320;2023-05-10T01:00:01;14.30;99.90
23445;DHT22;11895;48.738;9.320;2023-05-10T01:02:30;14.00;99.90
23445;DHT22;11895;48.738;9.320;2023-05-10T01:04:59;14.40;99.90
23445;DHT22;11895;48.738;9.320;2023-05-10T01:07:29;14.10;99.90
23445;DHT22;11895;48.738;9.320;2023-05-10T01:09:56;14.10;99.90
23445;DHT22;11895;48.738;9.320;2023-05-10T01:12:24;14.30;99.90
23445;DHT22;11895;48.738;9.320;2023-05-10T01:14:52;14.10;99.90
23445;DHT22;11895;48.738;9.320;2023-05-10T01:17:21;13.90;99.90
23445;DHT22;11895;48.738;9.320;2023-05-10T01:19:50;14.10;99.90
23445;DHT22;11895;48.738;9.320;2023-05-10T01:34:56;14.00;99.90
23445;DHT22;11895;48.738;9.320;2023-05-10T01:37:59;14.30;99.90
23445;DHT22;11895;48.738;9.320;2023-05-10T01:44:20;14.10;99.90
23445;DHT22;11895;48.738;9.320;2023-05-10T01:47:06;13.20;99.90
23445;DHT22;11895;48.738;9.320;2023-05-10T01:49:50;14.00;99.90
23445;DHT22;11895;48.738;9.320;2023-05-10T01:52:26;13.90;99.90
23445;DHT22;11895;48.738;9.320;2023-05-10T01:55:04;13.70;99.90
23445;DHT22;11895;48.738;9.320;2023-05-10T01:57:36;13.50;99.90
23445;DHT22;11895;48.738;9.320;2023-05-10T02:00:08;13.20;99.90
23445;DHT22;11895;48.738;9.320;2023-05-10T02:02:45;13.30;99.90
23445;DHT22;11895;48.738;9.320;2023-05-10T02:05:16;13.50;99.90
23445;DHT22;11895;48.738;9.320;2023-05-10T02:07:47;13.40;99.90
23445;DHT22;11895;48.738;9.320;2023-05-10T02:10:16;13.70;99.90
23445;DHT22;11895;48.738;9.320;2023-05-10T02:12:47;13.50;99.90
23445;DHT22;11895;48.738;9.320;2023-05-10T02:15:21;13.60;99.90
23445;DHT22;11895;48.738;9.320;2023-05-10T02:17:54;13.40;99.90
23445;DHT22;11895;48.738;9.320;2023-05-10T02:20:25;13.30;99.90
23445;DHT22;11895;48.738;9.320;2023-05-10T02:22:55;13.30;99.90
23445;DHT22;11895;48.738;9.320;2023-05-10T02:25:25;13.50;99.90
23445;DHT22;11895;48.738;9.320;2023-05-10T02:27:55;13.50;99.90
23445;DHT22;11895;48.738;9.320;2023-05-10T02:30:25;13.40;99.90
23445;DHT22;11895;48.738;9.320;2023-05-10T02:32:53;13.30;99.90
23445;DHT22;11895;48.738;9.320;2023-05-10T02:35:24;13.90;99.90
23445;DHT22;11895;48.738;9.320;2023-05-10T02:37:53;13.00;99.90
23445;DHT22;11895;48.738;9.320;2023-05-10T02:42:56;13.10;99.90
23445;DHT22;11895;48.738;9.320;2023-05-10T02:45:30;13.70;99.90
23445;DHT22;11895;48.738;9.320;2023-05-10T02:47:59;13.90;99.90
23445;DHT22;11895;48.738;9.320;2023-05-10T02:50:28;13.80;99.90
23445;DHT22;11895;48.738;9.320;2023-05-10T02:53:09;14.00;99.90
23445;DHT22;11895;48.738;9.320;2023-05-10T02:55:51;14.00;99.90
23445;DHT22;11895;48.738;9.320;2023-05-10T02:58:21;13.30;99.90
23445;DHT22;11895;48.738;9.320;2023-05-10T03:00:49;13.40;99.90
23445;DHT22;11895;48.738;9.320;2023-05-10T03:03:18;13.60;99.90
23445;DHT22;11895;48.738;9.320;2023-05-10T03:05:49;13.20;99.90
23445;DHT22;11895;48.738;9.320;2023-05-10T03:08:16;13.30;99.90
23445;DHT22;11895;48.738;9.320;2023-05-10T03:17:15;13.30;99.90
23445;DHT22;11895;48.738;9.320;2023-05-10T03:19:57;13.60;99.90
23445;DHT22;11895;48.738;9.320;2023-05-10T03:22:36;13.40;99.90
23445;DHT22;11895;48.738;9.320;2023-05-10T03:25:08;13.50;99.90
23445;DHT22;11895;48.738;9.320;2023-05-10T03:27:41;13.90;99.90
23445;DHT22;11895;48.738;9.320;2023-05-10T03:30:12;13.10;99.90
23445;DHT22;11895;48.738;9.320;2023-05-10T03:32:41;13.50;99.90
23445;DHT22;11895;48.738;9.320;2023-05-10T03:35:10;13.50;99.90
23445;DHT22;11895;48.738;9.320;2023-05-10T03:37:39;13.40;99.90
23445;DHT22;11895;48.738;9.320;2023-05-10T03:40:07;13.20;99.90
23445;DHT22;11895;48.738;9.320;2023-05-10T03:42:39;13.60;99.90
23445;DHT22;11895;48.738;9.320;2023-05-10T03:45:07;13.30;99.90
23445;DHT22;11895;48.738;9.320;2023-05-10T03:47:35;13.30;99.90
23445;DHT22;11895;48.738;9.320;2023-05-10T03:50:03;13.50;99.90
23445;DHT22;11895;48.738;9.320;2023-05-10T03:52:32;13.60;99.90
23445;DHT22;11895;48.738;9.320;2023-05-10T03:54:59;13.60;99.90
23445;DHT22;11895;48.738;9.320;2023-05-10T03:57:27;13.70;99.90
23445;DHT22;11895;48.738;9.320;2023-05-10T03:59:54;13.70;99.90
23445;DHT22;11895;48.738;9.320;2023-05-10T04:02:23;13.30;99.90
23445;DHT22;11895;48.738;9.320;2023-05-10T04:04:51;13.50;99.90
23445;DHT22;11895;48.738;9.320;2023-05-10T04:07:18;14.10;99.90
23445;DHT22;11895;48.738;9.320;2023-05-10T04:09:46;13.70;99.90
23445;DHT22;11895;48.738;9.320;2023-05-10T04:12:14;14.00;99.90
23445;DHT22;11895;48.738;9.320;2023-05-10T04:14:42;13.30;99.90
23445;DHT22;11895;48.738;9.320;2023-05-10T04:17:09;13.20;99.90
23445;DHT22;11895;48.738;9.320;2023-05-10T04:19:37;13.20;99.90
23445;DHT22;11895;48.738;9.320;2023-05-10T04:22:05;13.50;99.90
23445;DHT22;11895;48.738;9.320;2023-05-10T04:27:01;13.20;99.90
23445;DHT22;11895;48.738;9.320;2023-05-10T04:29:29;13.30;99.90
23445;DHT22;11895;48.738;9.320;2023-05-10T04:31:58;13.50;99.90
23445;DHT22;11895;48.738;9.320;2023-05-10T04:34:25;13.20;99.90
23445;DHT22;11895;48.738;9.320;2023-05-10T04:36:53;13.20;99.90
23445;DHT22;11895;48.738;9.320;2023-05-10T04:39:20;12.90;99.90
23445;DHT22;11895;48.738;9.320;2023-05-10T04:41:49;13.10;99.90
23445;DHT22;11895;48.738;9.320;2023-05-10T04:44:16;13.20;99.90
23445;DHT22;11895;48.738;9.320;2023-05-10T04:46:44;13.90;99.90
23445;DHT22;11895;48.738;9.320;2023-05-10T04:49:11;13.30;99.90
23445;DHT22;11895;48.738;9.320;2023-05-10T04:51:38;12.70;99.90
23445;DHT22;11895;48.738;9.320;2023-05-10T04:54:06;13.30;99.90
23445;DHT22;11895;48.738;9.320;2023-05-10T04:56:33;13.40;99.90
23445;DHT22;11895;48.738;9.320;2023-05-10T04:59:00;13.80;99.90
23445;DHT22;11895;48.738;9.320;2023-05-10T05:01:28;13.40;99.90
23445;DHT22;11895;48.738;9.320;2023-05-10T05:04:02;14.00;99.90
23445;DHT22;11895;48.738;9.320;2023-05-10T05:06:29;13.50;99.90
23445;DHT22;11895;48.738;9.320;2023-05-10T05:08:56;13.80;99.90
23445;DHT22;11895;48.738;9.320;2023-05-10T05:11:24;13.50;99.90
23445;DHT22;11895;48.738;9.320;2023-05-10T05:13:53;14.10;99.90
23445;DHT22;11895;48.738;9.320;2023-05-10T05:16:20;13.70;99.90
23445;DHT22;11895;48.738;9.320;2023-05-10T05:18:53;14.00;99.90
23445;DHT22;11895;48.738;9.320;2023-05-10T05:21:21;14.00;99.90
23445;DHT22;11895;48.738;9.320;2023-05-10T05:23:51;13.80;99.90
23445;DHT22;11895;48.738;9.320;2023-05-10T05:26:19;14.00;99.90
23445;DHT22;11895;48.738;9.320;2023-05-10T05:28:46;14.10;99.90
23445;DHT22;11895;48.738;9.320;2023-05-10T05:31:17;14.20;99.90
23445;DHT22;11895;48.738;9.320;2023-05-10T05:33:44;14.20;99.90
23445;DHT22;11895;48.738;9.320;2023-05-10T05:36:12;14.20;99.90
23445;DHT22;11895;48.738;9.320;2023-05-10T05:38:39;14.30;99.90
23445;DHT22;11895;48.738;9.320;2023-05-10T05:41:06;14.30;99.90
23445;DHT22;11895;48.738;9.320;2023-05-10T05:43:34;14.20;99.90
23445;DHT22;11895;48.738;9.320;2023-05-10T05:46:04;14.40;99.90
23445;DHT22;11895;48.738;9.320;2023-05-10T05:48:31;14.20;99.90
23445;DHT22;11895;48.738;9.320;2023-05-10T05:51:05;14.20;99.90
23445;DHT22;11895;48.738;9.320;2023-05-10T05:53:33;14.40;99.90
23445;DHT22;11895;48.738;9.320;2023-05-10T05:56:00;14.40;99.90
23445;DHT22;11895;48.738;9.320;2023-05-10T05:58:28;14.40;99.90
23445;DHT22;11895;48.738;9.320;2023-05-10T06:00:56;14.60;99.90
23445;DHT22;11895;48.738;9.320;2023-05-10T06:03:24;14.60;99.90
23445;DHT22;11895;48.738;9.320;2023-05-10T06:05:52;14.90;99.90
23445;DHT22;11895;48.738;9.320;2023-05-10T06:08:19;14.70;99.90
23445;DHT22;11895;48.738;9.320;2023-05-10T06:10:47;14.60;99.90
23445;DHT22;11895;48.738;9.320;2023-05-10T06:13:15;14.60;99.90
23445;DHT22;11895;48.738;9.320;2023-05-10T06:15:42;14.70;99.90
23445;DHT22;11895;48.738;9.320;2023-05-10T06:18:12;14.70;99.90
23445;DHT22;11895;48.738;9.320;2023-05-10T06:20:47;14.70;99.90
23445;DHT22;11895;48.738;9.320;2023-05-10T06:23:17;14.80;99.90
23445;DHT22;11895;48.738;9.320;2023-05-10T06:25:45;14.90;99.90
23445;DHT22;11895;48.738;9.320;2023-05-10T06:28:12;14.80;99.90
23445;DHT22;11895;48.738;9.320;2023-05-10T06:30:40;14.80;99.90
23445;DHT22;11895;48.738;9.320;2023-05-10T06:33:08;14.90;99.90
23445;DHT22;11895;48.738;9.320;2023-05-10T06:35:35;14.90;99.90
23445;DHT22;11895;48.738;9.320;2023-05-10T06:38:03;14.80;99.90
23445;DHT22;11895;48.738;9.320;2023-05-10T06:40:30;15.00;99.90
23445;DHT22;11895;48.738;9.320;2023-05-10T06:42:58;14.90;99.90
23445;DHT22;11895;48.738;9.320;2023-05-10T06:45:25;14.80;99.90
23445;DHT22;11895;48.738;9.320;2023-05-10T06:47:53;14.70;99.90
23445;DHT22;11895;48.738;9.320;2023-05-10T06:50:20;14.90;99.90
23445;DHT22;11895;48.738;9.320;2023-05-10T06:52:47;14.90;99.90
23445;DHT22;11895;48.738;9.320;2023-05-10T06:55:17;14.90;99.90
23445;DHT22;11895;48.738;9.320;2023-05-10T06:57:45;14.80;99.90
23445;DHT22;11895;48.738;9.320;2023-05-10T07:00:14;14.80;99.90
23445;DHT22;11895;48.738;9.320;2023-05-10T07:02:43;14.70;99.90
23445;DHT22;11895;48.738;9.320;2023-05-10T07:05:12;14.60;99.90
23445;DHT22;11895;48.738;9.320;2023-05-10T07:07:42;14.50;99.90
23445;DHT22;11895;48.738;9.320;2023-05-10T07:10:11;14.40;99.90
23445;DHT22;11895;48.738;9.320;2023-05-10T07:12:39;14.40;99.90
23445;DHT22;11895;48.738;9.320;2023-05-10T07:15:07;14.30;99.90
23445;DHT22;11895;48.738;9.320;2023-05-10T07:17:35;14.20;99.90
23445;DHT22;11895;48.738;9.320;2023-05-10T07:20:02;14.30;99.90
23445;DHT22;11895;48.738;9.320;2023-05-10T07:22:31;14.30;99.90
23445;DHT22;11895;48.738;9.320;2023-05-10T07:24:59;14.30;99.90
23445;DHT22;11895;48.738;9.320;2023-05-10T07:27:26;14.50;99.90
23445;DHT22;11895;48.738;9.320;2023-05-10T07:29:54;14.60;99.90
23445;DHT22;11895;48.738;9.320;2023-05-10T07:32:23;14.70;99.90
23445;DHT22;11895;48.738;9.320;2023-05-10T07:34:51;14.80;99.90
23445;DHT22;11895;48.738;9.320;2023-05-10T07:37:18;14.90;99.90
23445;DHT22;11895;48.738;9.320;2023-05-10T07:39:45;15.20;99.90
23445;DHT22;11895;48.738;9.320;2023-05-10T07:42:13;15.30;99.90
23445;DHT22;11895;48.738;9.320;2023-05-10T07:44:40;15.40;99.90
23445;DHT22;11895;48.738;9.320;2023-05-10T07:47:08;16.00;99.90
23445;DHT22;11895;48.738;9.320;2023-05-10T07:49:35;15.80;99.90
23445;DHT22;11895;48.738;9.320;2023-05-10T07:52:03;15.90;99.90
23445;DHT22;11895;48.738;9.320;2023-05-10T07:54:31;16.40;99.90
23445;DHT22;11895;48.738;9.320;2023-05-10T07:57:00;16.10;99.90
23445;DHT22;11895;48.738;9.320;2023-05-10T07:59:27;16.10;99.90
23445;DHT22;11895;48.738;9.320;2023-05-10T08:01:54;16.30;99.90
23445;DHT22;11895;48.738;9.320;2023-05-10T08:04:23;16.50;99.90
23445;DHT22;11895;48.738;9.320;2023-05-10T08:06:51;16.40;99.90
23445;DHT22;11895;48.738;9.320;2023-05-10T08:09:18;16.40;99.90
23445;DHT22;11895;48.738;9.320;2023-05-10T08:11:50;16.60;99.90
23445;DHT22;11895;48.738;9.320;2023-05-10T08:14:18;16.60;99.90
23445;DHT22;11895;48.738;9.320;2023-05-10T08:16:46;16.50;99.90
23445;DHT22;11895;48.738;9.320;2023-05-10T08:19:14;16.40;99.90
23445;DHT22;11895;48.738;9.320;2023-05-10T08:21:45;16.60;99.90
23445;DHT22;11895;48.738;9.320;2023-05-10T08:24:13;16.60;99.90
23445;DHT22;11895;48.738;9.320;2023-05-10T08:26:41;17.40;99.90
23445;DHT22;11895;48.738;9.320;2023-05-10T08:29:09;16.70;99.90
23445;DHT22;11895;48.738;9.320;2023-05-10T08:31:37;16.60;99.90
23445;DHT22;11895;48.738;9.320;2023-05-10T08:34:04;16.60;99.90
23445;DHT22;11895;48.738;9.320;2023-05-10T08:36:31;16.60;99.90
23445;DHT22;11895;48.738;9.320;2023-05-10T08:38:59;16.70;99.90
23445;DHT22;11895;48.738;9.320;2023-05-10T08:41:27;15.90;99.90
23445;DHT22;11895;48.738;9.320;2023-05-10T08:43:56;16.70;99.90
23445;DHT22;11895;48.738;9.320;2023-05-10T08:46:26;16.80;99.90
23445;DHT22;11895;48.738;9.320;2023-05-10T08:48:55;16.70;99.90
23445;DHT22;11895;48.738;9.320;2023-05-10T08:51:24;16.70;99.90
23445;DHT22;11895;48.738;9.320;2023-05-10T08:53:54;16.90;99.90
23445;DHT22;11895;48.738;9.320;2023-05-10T08:56:22;17.00;99.90
23445;DHT22;11895;48.738;9.320;2023-05-10T08:58:51;17.40;99.90
23445;DHT22;11895;48.738;9.320;2023-05-10T09:03:49;17.40;99.90
23445;DHT22;11895;48.738;9.320;2023-05-10T09:06:17;17.50;99.90
23445;DHT22;11895;48.738;9.320;2023-05-10T09:08:45;17.30;99.90
23445;DHT22;11895;48.738;9.320;2023-05-10T09:11:13;17.70;99.90
23445;DHT22;11895;48.738;9.320;2023-05-10T09:16:10;18.00;99.90
23445;DHT22;11895;48.738;9.320;2023-05-10T09:18:48;17.70;99.90
23445;DHT22;11895;48.738;9.320;2023-05-10T09:21:16;18.10;99.90
23445;DHT22;11895;48.738;9.320;2023-05-10T09:23:45;18.20;99.90
23445;DHT22;11895;48.738;9.320;2023-05-10T09:26:22;18.00;99.90
23445;DHT22;11895;48.738;9.320;2023-05-10T09:29:08;17.50;99.90
23445;DHT22;11895;48.738;9.320;2023-05-10T09:31:48;17.80;99.90
23445;DHT22;11895;48.738;9.320;2023-05-10T09:34:30;17.70;99.90
23445;DHT22;11895;48.738;9.320;2023-05-10T09:37:00;17.60;99.90
23445;DHT22;11895;48.738;9.320;2023-05-10T09:39:34;17.60;99.90
23445;DHT22;11895;48.738;9.320;2023-05-10T09:42:10;18.00;99.90
23445;DHT22;11895;48.738;9.320;2023-05-10T09:44:37;17.40;99.90
23445;DHT22;11895;48.738;9.320;2023-05-10T09:47:05;16.90;99.90
23445;DHT22;11895;48.738;9.320;2023-05-10T09:49:32;17.30;99.90
23445;DHT22;11895;48.738;9.320;2023-05-10T09:52:01;16.60;99.90
23445;DHT22;11895;48.738;9.320;2023-05-10T09:54:32;16.40;99.90
23445;DHT22;11895;48.738;9.320;2023-05-10T09:57:00;16.10;99.90
23445;DHT22;11895;48.738;9.320;2023-05-10T09:59:29;16.20;99.90
23445;DHT22;11895;48.738;9.320;2023-05-10T10:01:57;15.80;99.90
23445;DHT22;11895;48.738;9.320;2023-05-10T10:04:30;15.40;99.90
23445;DHT22;11895;48.738;9.320;2023-05-10T10:07:00;15.50;99.90
23445;DHT22;11895;48.738;9.320;2023-05-10T10:09:31;15.80;99.90
23445;DHT22;11895;48.738;9.320;2023-05-10T10:12:04;16.00;99.90
23445;DHT22;11895;48.738;9.320;2023-05-10T10:14:31;16.50;99.90
23445;DHT22;11895;48.738;9.320;2023-05-10T10:17:00;16.70;99.90
23445;DHT22;11895;48.738;9.320;2023-05-10T10:22:04;16.80;99.90
23445;DHT22;11895;48.738;9.320;2023-05-10T10:24:33;16.90;99.90
23445;DHT22;11895;48.738;9.320;2023-05-10T10:27:12;17.30;99.90
23445;DHT22;11895;48.738;9.320;2023-05-10T10:30:31;17.50;99.90
23445;DHT22;11895;48.738;9.320;2023-05-10T10:36:07;18.20;99.90
23445;DHT22;11895;48.738;9.320;2023-05-10T10:38:55;18.60;99.90
23445;DHT22;11895;48.738;9.320;2023-05-10T10:41:35;18.90;99.90
23445;DHT22;11895;48.738;9.320;2023-05-10T10:55:13;19.40;99.90
23445;DHT22;11895;48.738;9.320;2023-05-10T10:57:52;19.50;99.90
23445;DHT22;11895;48.738;9.320;2023-05-10T11:03:11;19.70;99.90
23445;DHT22;11895;48.738;9.320;2023-05-10T11:05:49;19.90;99.90
23445;DHT22;11895;48.738;9.320;2023-05-10T11:08:32;19.80;99.90
23445;DHT22;11895;48.738;9.320;2023-05-10T11:11:06;20.10;99.90
23445;DHT22;11895;48.738;9.320;2023-05-10T11:16:18;20.00;99.90
23445;DHT22;11895;48.738;9.320;2023-05-10T11:19:02;19.70;99.90
23445;DHT22;11895;48.738;9.320;2023-05-10T11:21:33;19.40;99.90
23445;DHT22;11895;48.738;9.320;2023-05-10T11:24:14;19.10;99.90
23445;DHT22;11895;48.738;9.320;2023-05-10T11:26:45;18.70;99.90
23445;DHT22;11895;48.738;9.320;2023-05-10T11:29:13;18.50;99.90
23445;DHT22;11895;48.738;9.320;2023-05-10T11:31:44;18.30;99.90
23445;DHT22;11895;48.738;9.320;2023-05-10T11:34:27;18.10;99.90
23445;DHT22;11895;48.738;9.320;2023-05-10T11:36:57;18.10;99.90
23445;DHT22;11895;48.738;9.320;2023-05-10T11:39:29;18.00;99.90
23445;DHT22;11895;48.738;9.320;2023-05-10T11:41:59;17.90;99.90
23445;DHT22;11895;48.738;9.320;2023-05-10T11:44:31;17.90;99.90
23445;DHT22;11895;48.738;9.320;2023-05-10T11:47:00;17.80;99.90
23445;DHT22;11895;48.738;9.320;2023-05-10T11:49:29;17.80;99.90
23445;DHT22;11895;48.738;9.320;2023-05-10T11:52:06;17.90;99.90
23445;DHT22;11895;48.738;9.320;2023-05-10T11:54:35;18.00;99.90
23445;DHT22;11895;48.738;9.320;2023-05-10T11:57:03;18.10;99.90
23445;DHT22;11895;48.738;9.320;2023-05-10T11:59:30;18.10;99.90
23445;DHT22;11895;48.738;9.320;2023-05-10T12:01:58;18.00;99.90
23445;DHT22;11895;48.738;9.320;2023-05-10T12:04:26;17.80;99.90
23445;DHT22;11895;48.738;9.320;2023-05-10T12:06:57;16.20;99.90
23445;DHT22;11895;48.738;9.320;2023-05-10T12:09:24;16.00;99.90
23445;DHT22;11895;48.738;9.320;2023-05-10T12:12:08;14.50;99.90
23445;DHT22;11895;48.738;9.320;2023-05-10T12:14:36;14.70;99.90
23445;DHT22;11895;48.738;9.320;2023-05-10T12:17:11;14.10;99.90
23445;DHT22;11895;48.738;9.320;2023-05-10T12:19:41;14.00;99.90
23445;DHT22;11895;48.738;9.320;2023-05-10T12:22:08;13.60;99.90
23445;DHT22;11895;48.738;9.320;2023-05-10T12:24:37;13.40;99.90
23445;DHT22;11895;48.738;9.320;2023-05-10T12:27:08;13.60;99.90
23445;DHT22;11895;48.738;9.320;2023-05-10T12:29:37;13.60;99.90
23445;DHT22;11895;48.738;9.320;2023-05-10T12:32:11;13.60;99.90
23445;DHT22;11895;48.738;9.320;2023-05-10T12:34:39;13.70;99.90
23445;DHT22;11895;48.738;9.320;2023-05-10T12:37:07;13.90;99.90
23445;DHT22;11895;48.738;9.320;2023-05-10T12:39:44;14.80;99.90
23445;DHT22;11895;48.738;9.320;2023-05-10T12:42:12;14.40;99.90
23445;DHT22;11895;48.738;9.320;2023-05-10T12:44:40;14.70;99.90
23445;DHT22;11895;48.738;9.320;2023-05-10T12:47:07;15.70;99.90
23445;DHT22;11895;48.738;9.320;2023-05-10T12:49:34;15.40;99.90
23445;DHT22;11895;48.738;9.320;2023-05-10T12:52:04;15.50;99.90
23445;DHT22;11895;48.738;9.320;2023-05-10T12:54:32;15.40;99.90
23445;DHT22;11895;48.738;9.320;2023-05-10T12:56:59;15.20;99.90
23445;DHT22;11895;48.738;9.320;2023-05-10T12:59:26;15.10;99.90
23445;DHT22;11895;48.738;9.320;2023-05-10T13:01:57;15.00;99.90
23445;DHT22;11895;48.738;9.320;2023-05-10T13:04:24;15.10;99.90
23445;DHT22;11895;48.738;9.320;2023-05-10T13:06:51;14.90;99.90
23445;DHT22;11895;48.738;9.320;2023-05-10T13:09:19;14.70;99.90
23445;DHT22;11895;48.738;9.320;2023-05-10T13:11:48;14.60;99.90
23445;DHT22;11895;48.738;9.320;2023-05-10T13:14:16;14.50;99.90
23445;DHT22;11895;48.738;9.320;2023-05-10T13:16:43;14.50;99.90
23445;DHT22;11895;48.738;9.320;2023-05-10T13:19:12;14.50;99.90
23445;DHT22;11895;48.738;9.320;2023-05-10T13:21:40;14.70;99.90
23445;DHT22;11895;48.738;9.320;2023-05-10T13:24:08;14.60;99.90
23445;DHT22;11895;48.738;9.320;2023-05-10T13:26:39;14.60;99.90
23445;DHT22;11895;48.738;9.320;2023-05-10T13:29:07;14.80;99.90
23445;DHT22;11895;48.738;9.320;2023-05-10T13:31:35;14.90;99.90
23445;DHT22;11895;48.738;9.320;2023-05-10T13:34:03;15.00;99.90
23445;DHT22;11895;48.738;9.320;2023-05-10T13:36:32;15.20;99.90
23445;DHT22;11895;48.738;9.320;2023-05-10T13:38:59;15.50;99.90
23445;DHT22;11895;48.738;9.320;2023-05-10T13:41:29;15.80;99.90
23445;DHT22;11895;48.738;9.320;2023-05-10T13:46:24;16.50;99.90
23445;DHT22;11895;48.738;9.320;2023-05-10T13:48:51;16.90;99.90
23445;DHT22;11895;48.738;9.320;2023-05-10T13:51:18;17.00;99.90
23445;DHT22;11895;48.738;9.320;2023-05-10T13:53:45;16.90;99.90
23445;DHT22;11895;48.738;9.320;2023-05-10T13:56:14;17.10;99.90
23445;DHT22;11895;48.738;9.320;2023-05-10T13:58:45;17.10;99.90
23445;DHT22;11895;48.738;9.320;2023-05-10T14:01:13;17.30;99.90
23445;DHT22;11895;48.738;9.320;2023-05-10T14:03:40;17.50;99.90
23445;DHT22;11895;48.738;9.320;2023-05-10T14:06:07;18.00;99.90
23445;DHT22;11895;48.738;9.320;2023-05-10T14:08:35;18.20;99.90
23445;DHT22;11895;48.738;9.320;2023-05-10T14:11:03;18.40;99.90
23445;DHT22;11895;48.738;9.320;2023-05-10T14:13:30;18.20;99.90
23445;DHT22;11895;48.738;9.320;2023-05-10T14:15:58;18.60;99.90
23445;DHT22;11895;48.738;9.320;2023-05-10T14:18:27;18.60;99.90
23445;DHT22;11895;48.738;9.320;2023-05-10T14:20:56;18.90;99.90
23445;DHT22;11895;48.738;9.320;2023-05-10T14:23:23;19.20;99.90
23445;DHT22;11895;48.738;9.320;2023-05-10T14:25:51;19.30;99.90
23445;DHT22;11895;48.738;9.320;2023-05-10T14:28:19;19.60;99.90
23445;DHT22;11895;48.738;9.320;2023-05-10T14:30:47;20.00;99.90
23445;DHT22;11895;48.738;9.320;2023-05-10T14:33:14;20.10;99.90
23445;DHT22;11895;48.738;9.320;2023-05-10T14:35:41;20.20;99.90
23445;DHT22;11895;48.738;9.320;2023-05-10T14:38:09;20.20;99.90
23445;DHT22;11895;48.738;9.320;2023-05-10T14:40:37;20.40;99.90
23445;DHT22;11895;48.738;9.320;2023-05-10T14:43:04;20.60;99.90
23445;DHT22;11895;48.738;9.320;2023-05-10T14:45:32;20.50;99.90
23445;DHT22;11895;48.738;9.320;2023-05-10T14:50:31;20.60;99.90
23445;DHT22;11895;48.738;9.320;2023-05-10T14:53:03;20.60;99.90
23445;DHT22;11895;48.738;9.320;2023-05-10T14:55:31;20.70;99.90
23445;DHT22;11895;48.738;9.320;2023-05-10T14:57:59;20.50;99.90
23445;DHT22;11895;48.738;9.320;2023-05-10T15:00:28;20.30;99.90
23445;DHT22;11895;48.738;9.320;2023-05-10T15:02:57;20.10;99.90
23445;DHT22;11895;48.738;9.320;2023-05-10T15:05:25;20.00;99.90
23445;DHT22;11895;48.738;9.320;2023-05-10T15:07:53;20.00;99.90
23445;DHT22;11895;48.738;9.320;2023-05-10T15:10:20;19.90;99.90
23445;DHT22;11895;48.738;9.320;2023-05-10T15:12:49;19.50;99.90
23445;DHT22;11895;48.738;9.320;2023-05-10T15:15:17;19.40;99.90
23445;DHT22;11895;48.738;9.320;2023-05-10T15:17:44;19.30;99.90
23445;DHT22;11895;48.738;9.320;2023-05-10T15:20:12;19.30;99.90
23445;DHT22;11895;48.738;9.320;2023-05-10T15:22:40;19.20;99.90
23445;DHT22;11895;48.738;9.320;2023-05-10T15:25:08;19.10;99.90
23445;DHT22;11895;48.738;9.320;2023-05-10T15:27:36;19.10;99.90
23445;DHT22;11895;48.738;9.320;2023-05-10T15:30:04;19.20;99.90
23445;DHT22;11895;48.738;9.320;2023-05-10T15:32:33;19.20;99.90
23445;DHT22;11895;48.738;9.320;2023-05-10T15:35:01;19.30;99.90
23445;DHT22;11895;48.738;9.320;2023-05-10T15:37:29;19.40;99.90
23445;DHT22;11895;48.738;9.320;2023-05-10T15:39:56;19.60;99.90
23445;DHT22;11895;48.738;9.320;2023-05-10T15:42:32;19.70;99.90
23445;DHT22;11895;48.738;9.320;2023-05-10T15:44:59;19.80;99.90
23445;DHT22;11895;48.738;9.320;2023-05-10T15:47:29;19.90;99.90
23445;DHT22;11895;48.738;9.320;2023-05-10T15:49:57;20.00;99.90
23445;DHT22;11895;48.738;9.320;2023-05-10T15:52:25;19.90;99.90
23445;DHT22;11895;48.738;9.320;2023-05-10T15:54:53;20.10;99.90
23445;DHT22;11895;48.738;9.320;2023-05-10T15:57:20;20.00;99.90
23445;DHT22;11895;48.738;9.320;2023-05-10T15:59:48;19.90;99.90
23445;DHT22;11895;48.738;9.320;2023-05-10T16:02:16;19.90;99.90
23445;DHT22;11895;48.738;9.320;2023-05-10T16:04:45;19.80;99.90
23445;DHT22;11895;48.738;9.320;2023-05-10T16:07:12;19.70;99.90
23445;DHT22;11895;48.738;9.320;2023-05-10T16:09:40;19.50;99.90
23445;DHT22;11895;48.738;9.320;2023-05-10T16:12:08;19.40;99.90
23445;DHT22;11895;48.738;9.320;2023-05-10T16:14:36;19.30;99.90
23445;DHT22;11895;48.738;9.320;2023-05-10T16:17:03;19.20;99.90
23445;DHT22;11895;48.738;9.320;2023-05-10T16:19:31;19.20;99.90
23445;DHT22;11895;48.738;9.320;2023-05-10T16:21:58;19.30;99.90
23445;DHT22;11895;48.738;9.320;2023-05-10T16:24:27;19.30;99.90
23445;DHT22;11895;48.738;9.320;2023-05-10T16:26:55;19.30;99.90
23445;DHT22;11895;48.738;9.320;2023-05-10T16:29:23;19.20;99.90
23445;DHT22;11895;48.738;9.320;2023-05-10T16:31:52;19.20;99.90
23445;DHT22;11895;48.738;9.320;2023-05-10T16:34:20;19.20;99.90
23445;DHT22;11895;48.738;9.320;2023-05-10T16:36:50;19.10;99.90
23445;DHT22;11895;48.738;9.320;2023-05-10T16:39:17;19.10;99.90
23445;DHT22;11895;48.738;9.320;2023-05-10T16:41:45;19.10;99.90
23445;DHT22;11895;48.738;9.320;2023-05-10T16:44:12;18.90;99.90